Time;durP1;ratioP1;P1;durP2;ratioP2;P2;SDS_P1;SDS_P2;PMS_P1;PMS_P2;Temp;Humidity;BMP_temperature;BMP_pressure;BME280_temperature;BME280_humidity;BME280_pressure;Samples;Min_cycle;Max_cycle;Signal;HPM_P1;HPM_P2
2023/07/14 00:00:39;;;;;;;8.85;3.17;;;;;;;20.56;56.57;101695.72;5141749;27;20092;-61
2023/07/14 00:03:08;;;;;;;6.78;3.08;;;;;;;20.56;56.76;101692.16;5147168;28;20072;-61
2023/07/14 00:05:39;;;;;;;5.00;2.63;;;;;;;20.55;56.83;101690.53;5141244;28;20134;-62
2023/07/14 00:08:16;;;;;;;5.82;2.70;;;;;;;20.54;56.71;101681.50;5145479;27;20055;-63
2023/07/14 00:10:44;;;;;;;5.35;2.75;;;;;;;20.54;56.53;101691.59;5143902;28;20043;-61
2023/07/14 00:13:15;;;;;;;5.28;2.70;;;;;;;20.53;56.60;101685.31;5146365;28;20070;-62
2023/07/14 00:15:44;;;;;;;5.18;2.50;;;;;;;20.53;56.70;101684.50;5144223;27;20099;-62
2023/07/14 00:18:18;;;;;;;5.93;2.65;;;;;;;20.52;56.78;101682.88;5142507;28;20043;-62
2023/07/14 00:20:46;;;;;;;4.30;2.53;;;;;;;20.51;56.59;101682.03;5143726;28;20055;-62
2023/07/14 00:23:17;;;;;;;5.55;3.20;;;;;;;20.51;56.62;101686.69;5146303;27;20047;-61
2023/07/14 00:25:45;;;;;;;5.15;2.78;;;;;;;20.49;56.72;101678.75;5161610;27;20047;-61
2023/07/14 00:28:16;;;;;;;4.50;2.95;;;;;;;20.48;56.64;101674.38;5153632;27;20472;-61
2023/07/14 00:30:44;;;;;;;3.85;2.47;;;;;;;20.46;56.59;101671.91;5151475;27;20043;-62
2023/07/14 00:33:14;;;;;;;3.90;2.38;;;;;;;20.47;56.69;101680.94;5143155;27;20065;-62
2023/07/14 00:35:42;;;;;;;5.88;2.83;;;;;;;20.46;56.30;101684.75;5152076;27;20112;-62
2023/07/14 00:38:11;;;;;;;6.88;3.35;;;;;;;20.45;56.62;101678.47;5147831;27;20568;-61
2023/07/14 00:40:42;;;;;;;6.50;2.92;;;;;;;20.45;56.65;101683.94;5155149;27;20088;-61
2023/07/14 00:43:15;;;;;;;5.35;2.63;;;;;;;20.43;56.63;101675.19;5137539;27;20075;-62
2023/07/14 00:45:44;;;;;;;4.15;2.58;;;;;;;20.43;56.54;101677.09;5146234;27;20047;-61
2023/07/14 00:48:16;;;;;;;5.93;2.70;;;;;;;20.41;56.74;101676.53;5141000;27;20070;-62
2023/07/14 00:50:49;;;;;;;5.90;2.72;;;;;;;20.40;56.44;101661.25;5144464;27;20046;-61
2023/07/14 00:53:23;;;;;;;11.27;3.15;;;;;;;20.38;56.57;101664.25;5150166;27;20051;-62
2023/07/14 00:55:57;;;;;;;4.65;2.80;;;;;;;20.37;56.67;101661.75;5144350;27;20063;-63
2023/07/14 00:58:26;;;;;;;4.65;2.53;;;;;;;20.36;56.66;101660.94;5147941;27;20047;-62
2023/07/14 01:01:05;;;;;;;4.85;2.90;;;;;;;20.35;56.60;101661.19;5147064;27;20108;-62
2023/07/14 01:03:39;;;;;;;6.93;2.78;;;;;;;20.33;56.42;101666.09;5147669;27;20067;-62
2023/07/14 01:06:10;;;;;;;7.25;2.40;;;;;;;20.33;56.59;101666.09;5143979;27;20074;-62
2023/07/14 01:08:46;;;;;;;4.95;3.10;;;;;;;20.32;56.41;101664.47;5137649;27;20111;-62
2023/07/14 01:11:16;;;;;;;4.27;2.70;;;;;;;20.31;56.54;101658.19;5142706;27;20078;-60
2023/07/14 01:13:44;;;;;;;4.97;2.90;;;;;;;20.30;56.31;101663.91;5146540;27;20297;-61
2023/07/14 01:16:15;;;;;;;5.35;2.50;;;;;;;20.28;56.36;101655.16;5157961;27;20043;-62
2023/07/14 01:18:44;;;;;;;6.38;3.05;;;;;;;20.27;56.47;101658.97;5157248;27;20043;-62
2023/07/14 01:21:12;;;;;;;4.38;2.80;;;;;;;20.26;56.49;101651.88;5140578;27;20044;-62
2023/07/14 01:23:52;;;;;;;4.40;2.67;;;;;;;20.25;56.50;101644.78;5143393;27;20047;-62
2023/07/14 01:26:31;;;;;;;4.22;2.60;;;;;;;20.24;56.42;101651.31;5143736;27;20055;-61
2023/07/14 01:29:00;;;;;;;5.70;2.70;;;;;;;20.22;56.50;101654.31;5148214;27;20096;-61
2023/07/14 01:31:28;;;;;;;5.28;2.90;;;;;;;20.21;56.44;101660.88;5143901;27;20043;-61
2023/07/14 01:33:56;;;;;;;4.13;2.58;;;;;;;20.20;56.51;101650.22;5146511;27;20055;-62
2023/07/14 01:36:25;;;;;;;5.47;2.67;;;;;;;20.19;56.54;101648.56;5145971;27;20115;-62
2023/07/14 01:38:54;;;;;;;5.75;3.45;;;;;;;20.17;56.30;101643.38;5143133;27;20047;-62
2023/07/14 01:41:22;;;;;;;4.40;2.72;;;;;;;20.18;56.35;101641.47;5147237;27;20043;-61
2023/07/14 01:43:50;;;;;;;4.40;2.92;;;;;;;20.16;56.57;101649.94;5147709;27;20108;-61
2023/07/14 01:46:22;;;;;;;4.07;2.85;;;;;;;20.12;56.50;101649.63;5145351;27;20043;-61
2023/07/14 01:49:03;;;;;;;4.47;2.45;;;;;;;20.14;56.61;101638.44;5146606;27;20043;-62
2023/07/14 01:51:38;;;;;;;6.93;2.90;;;;;;;20.13;56.71;101634.09;5144691;27;20039;-61
2023/07/14 01:54:23;;;;;;;4.25;2.70;;;;;;;20.13;56.50;101645.81;5146804;27;20381;-61
2023/07/14 01:56:52;;;;;;;6.20;2.70;;;;;;;20.11;56.76;101645.25;5142394;27;20500;-61
2023/07/14 01:59:25;;;;;;;5.38;2.60;;;;;;;20.10;56.51;101646.34;5148998;27;20055;-62
2023/07/14 02:01:55;;;;;;;5.72;2.80;;;;;;;20.08;56.63;101632.16;5143762;27;20039;-62
2023/07/14 02:04:27;;;;;;;4.50;2.72;;;;;;;20.08;56.63;101631.34;5136432;27;20243;-62
2023/07/14 02:06:57;;;;;;;6.25;3.00;;;;;;;20.06;56.51;101634.31;5139363;27;20143;-62
2023/07/14 02:09:28;;;;;;;5.05;2.80;;;;;;;20.07;56.63;101635.97;5142880;27;20217;-62
2023/07/14 02:11:59;;;;;;;4.38;2.50;;;;;;;20.07;56.51;101632.41;5135009;27;20043;-62
2023/07/14 02:14:32;;;;;;;5.90;2.83;;;;;;;20.06;56.59;101628.03;5133028;27;20080;-62
2023/07/14 02:17:06;;;;;;;4.95;2.65;;;;;;;20.05;56.76;101624.50;5139853;27;20130;-62
2023/07/14 02:19:34;;;;;;;4.20;2.55;;;;;;;20.05;56.58;101623.69;5146065;27;20058;-62
2023/07/14 02:22:03;;;;;;;4.85;3.00;;;;;;;20.04;56.47;101622.03;5139117;27;20443;-62
2023/07/14 02:24:31;;;;;;;6.18;2.97;;;;;;;20.05;56.58;101629.13;5146581;27;20058;-61
2023/07/14 02:27:02;;;;;;;7.63;3.55;;;;;;;20.02;56.49;101616.84;5144984;27;20054;-61
2023/07/14 02:29:30;;;;;;;5.18;2.63;;;;;;;20.02;56.41;101622.28;5140140;27;20076;-61
2023/07/14 02:32:09;;;;;;;4.65;2.97;;;;;;;20.02;56.58;101618.75;5144623;27;20114;-61
2023/07/14 02:34:41;;;;;;;4.03;2.75;;;;;;;20.00;56.29;101615.47;5145640;27;20069;-62
2023/07/14 02:38:04;;;;;;;8.77;3.00;;;;;;;20.00;56.39;101618.19;5142096;27;20047;-61
2023/07/14 02:40:37;;;;;;;4.53;2.85;;;;;;;19.99;56.47;101608.38;5144923;27;20494;-61
2023/07/14 02:43:10;;;;;;;5.07;2.80;;;;;;;19.98;56.51;101614.91;5140517;27;20549;-62
2023/07/14 02:45:45;;;;;;;6.07;2.95;;;;;;;19.97;56.53;101619.53;5145429;27;20165;-62
2023/07/14 02:48:20;;;;;;;7.50;3.00;;;;;;;19.97;56.31;101618.72;5142169;27;20059;-62
2023/07/14 02:50:47;;;;;;;6.72;3.05;;;;;;;19.95;56.44;101621.72;5142915;27;20062;-62
2023/07/14 02:53:17;;;;;;;5.13;3.00;;;;;;;19.94;56.58;101617.34;5145680;27;20047;-61
2023/07/14 02:55:45;;;;;;;4.82;2.55;;;;;;;19.93;56.55;101615.72;5145441;27;20051;-61
2023/07/14 02:58:13;;;;;;;4.53;2.40;;;;;;;19.93;56.39;101618.44;5141610;27;20043;-61
2023/07/14 03:00:41;;;;;;;3.65;2.40;;;;;;;19.92;56.30;101616.78;5143931;27;20050;-62
2023/07/14 03:03:09;;;;;;;7.50;2.97;;;;;;;19.91;56.31;101620.59;5143776;27;20043;-62
2023/07/14 03:05:38;;;;;;;4.15;2.40;;;;;;;19.91;56.21;101614.34;5145781;27;20136;-62
2023/07/14 03:08:14;;;;;;;5.60;2.60;;;;;;;19.89;56.27;101620.06;5144346;27;20109;-62
2023/07/14 03:10:43;;;;;;;4.90;2.60;;;;;;;19.89;56.33;101617.31;5143199;27;20128;-62
2023/07/14 03:13:11;;;;;;;4.18;2.17;;;;;;;19.87;56.20;101610.50;5144987;27;20754;-62
2023/07/14 03:15:39;;;;;;;5.15;2.75;;;;;;;19.86;56.40;101617.03;5144712;27;20043;-62
2023/07/14 03:18:06;;;;;;;5.22;2.47;;;;;;;19.85;56.26;101610.75;5144358;27;20039;-62
2023/07/14 03:20:34;;;;;;;4.72;2.45;;;;;;;19.83;56.15;101616.47;5136538;27;20039;-62
2023/07/14 03:23:03;;;;;;;4.50;2.55;;;;;;;19.83;56.08;101612.94;5135921;27;20096;-61
2023/07/14 03:25:33;;;;;;;5.03;2.60;;;;;;;19.81;56.26;101621.38;5141686;27;20065;-62
2023/07/14 03:28:01;;;;;;;5.68;2.80;;;;;;;19.81;56.04;101604.19;5139646;27;20043;-62
2023/07/14 03:30:29;;;;;;;5.40;2.40;;;;;;;19.80;56.09;101602.53;5143079;27;20045;-62
2023/07/14 03:32:57;;;;;;;4.05;2.95;;;;;;;19.78;56.07;101602.81;5140494;28;20040;-62
2023/07/14 03:35:25;;;;;;;4.30;2.53;;;;;;;19.78;55.91;101602.00;5144393;28;20476;-61
2023/07/14 03:37:52;;;;;;;3.70;2.42;;;;;;;19.76;56.20;101590.53;5143484;28;20043;-61
2023/07/14 03:40:22;;;;;;;3.15;2.28;;;;;;;19.76;56.11;101595.97;5138851;28;20043;-61
2023/07/14 03:42:50;;;;;;;4.35;2.60;;;;;;;19.74;56.18;101596.25;5138819;27;20043;-62
2023/07/14 03:45:17;;;;;;;3.85;2.40;;;;;;;19.74;56.02;101584.50;5139660;27;20051;-62
2023/07/14 03:47:45;;;;;;;3.10;2.40;;;;;;;19.73;56.09;101585.59;5144794;27;20209;-62
2023/07/14 03:50:13;;;;;;;4.18;2.75;;;;;;;19.73;56.18;101585.59;5149368;27;20321;-61
2023/07/14 03:52:42;;;;;;;3.60;2.42;;;;;;;19.72;56.21;101592.13;5143477;27;20043;-62
2023/07/14 03:55:11;;;;;;;3.33;2.25;;;;;;;19.71;55.95;101587.78;5155190;27;20055;-62
2023/07/14 03:57:40;;;;;;;3.53;2.28;;;;;;;19.71;56.13;101585.03;5145745;27;20054;-61
2023/07/14 04:00:28;;;;;;;3.80;2.38;;;;;;;19.69;55.99;101589.94;5143671;27;20051;-61
2023/07/14 04:02:56;;;;;;;4.55;2.67;;;;;;;19.68;55.82;101588.28;5148573;27;20039;-61
2023/07/14 04:05:24;;;;;;;5.32;2.83;;;;;;;19.67;55.87;101583.94;5141727;27;20091;-61
2023/07/14 04:07:51;;;;;;;5.07;2.15;;;;;;;19.66;55.93;101583.09;5141058;27;20117;-61
2023/07/14 04:10:20;;;;;;;4.40;2.67;;;;;;;19.65;55.94;101583.38;5142316;27;20073;-61
2023/07/14 04:12:50;;;;;;;3.70;2.28;;;;;;;19.64;56.03;101582.56;5145302;27;20044;-61
2023/07/14 04:15:20;;;;;;;4.85;2.75;;;;;;;19.64;55.98;101587.19;5147560;27;20051;-61
2023/07/14 04:17:48;;;;;;;4.90;2.97;;;;;;;19.63;56.07;101583.63;5148176;27;20069;-61
2023/07/14 04:20:16;;;;;;;4.63;2.60;;;;;;;19.62;56.03;101586.63;5150468;27;20047;-61
2023/07/14 04:22:43;;;;;;;6.47;2.83;;;;;;;19.63;56.04;101588.28;5143216;27;20441;-62
2023/07/14 04:25:11;;;;;;;4.63;2.45;;;;;;;19.61;56.18;101580.34;5149119;27;20043;-61
2023/07/14 04:27:39;;;;;;;5.30;2.63;;;;;;;19.61;55.92;101583.06;5147641;27;20320;-62
2023/07/14 04:30:09;;;;;;;5.15;2.58;;;;;;;19.61;56.09;101574.91;5146944;27;20043;-61
2023/07/14 04:32:37;;;;;;;4.10;2.35;;;;;;;19.60;55.99;101578.72;5146523;27;20043;-61
2023/07/14 04:35:06;;;;;;;5.10;2.45;;;;;;;19.59;56.07;101577.06;5145610;27;20110;-61
2023/07/14 04:37:34;;;;;;;4.70;2.50;;;;;;;19.59;56.16;101581.69;5147426;27;20238;-62
2023/07/14 04:40:04;;;;;;;9.07;3.30;;;;;;;19.57;56.11;101575.69;5149080;27;20043;-62
2023/07/14 04:42:32;;;;;;;4.45;2.25;;;;;;;19.56;56.04;101580.31;5151476;27;20043;-63
2023/07/14 04:44:59;;;;;;;5.75;2.95;;;;;;;19.58;55.89;101580.06;5151016;27;20043;-64
2023/07/14 04:47:28;;;;;;;5.50;2.20;;;;;;;19.55;55.93;101578.69;5158936;27;20047;-64
2023/07/14 04:49:56;;;;;;;3.15;2.10;;;;;;;19.55;55.77;101575.94;5137421;27;20457;-61
2023/07/14 04:52:24;;;;;;;4.95;2.20;;;;;;;19.54;55.91;101581.66;5147507;27;20047;-62
2023/07/14 04:54:52;;;;;;;4.13;2.60;;;;;;;19.54;55.71;101578.94;5145607;27;20061;-62
2023/07/14 04:57:20;;;;;;;4.30;2.50;;;;;;;19.53;55.77;101583.56;5145501;27;20096;-62
2023/07/14 04:59:47;;;;;;;3.88;2.10;;;;;;;19.52;55.97;101584.66;5148203;27;20077;-62
2023/07/14 05:02:15;;;;;;;3.88;2.53;;;;;;;19.53;55.73;101582.75;5133796;27;20043;-62
2023/07/14 05:04:45;;;;;;;4.65;2.72;;;;;;;19.52;55.68;101581.13;5144538;27;20126;-62
2023/07/14 05:07:27;;;;;;;6.80;2.83;;;;;;;19.51;55.83;101583.00;5137442;27;20106;-62
2023/07/14 05:09:55;;;;;;;6.65;2.85;;;;;;;19.50;55.71;101570.44;5143313;27;20487;-67
2023/07/14 05:12:23;;;;;;;4.70;2.60;;;;;;;19.49;55.76;101571.53;5137538;27;20051;-66
2023/07/14 05:14:50;;;;;;;5.40;2.25;;;;;;;19.48;55.67;101567.16;5140951;27;20069;-64
2023/07/14 05:17:18;;;;;;;4.90;2.33;;;;;;;19.48;55.74;101575.34;5138035;27;20515;-67
2023/07/14 05:19:47;;;;;;;4.13;2.35;;;;;;;19.47;55.78;101565.50;5144375;27;20113;-63
2023/07/14 05:22:15;;;;;;;5.07;2.42;;;;;;;19.47;55.83;101558.16;5141953;27;20047;-65
2023/07/14 05:24:49;;;;;;;4.67;2.47;;;;;;;19.45;56.17;101559.50;4992129;27;10000799;-66
2023/07/14 05:27:17;;;;;;;9.70;2.80;;;;;;;19.44;56.24;101564.13;5144966;27;20278;-65
2023/07/14 05:29:46;;;;;;;7.35;2.90;;;;;;;19.45;56.25;101563.03;5132378;27;20047;-66
2023/07/14 05:32:14;;;;;;;6.22;2.63;;;;;;;19.45;55.89;101565.78;5145846;27;20074;-64
2023/07/14 05:34:42;;;;;;;7.97;2.13;;;;;;;19.47;56.12;101569.06;5144276;27;20081;-65
2023/07/14 05:37:11;;;;;;;3.80;2.30;;;;;;;19.48;56.25;101567.97;5146086;27;20131;-64
2023/07/14 05:39:39;;;;;;;4.75;2.53;;;;;;;19.50;56.00;101565.81;5137694;27;20177;-65
2023/07/14 05:42:07;;;;;;;3.78;1.90;;;;;;;19.53;55.99;101560.94;5145220;27;20142;-65
2023/07/14 05:44:35;;;;;;;8.30;2.47;;;;;;;19.55;55.94;101562.31;5142691;27;20047;-64
2023/07/14 05:47:03;;;;;;;5.05;2.50;;;;;;;19.57;55.92;101567.50;5140240;27;20377;-63
2023/07/14 05:49:31;;;;;;;7.47;2.40;;;;;;;19.57;56.00;101568.31;5136201;27;20061;-61
2023/07/14 05:51:59;;;;;;;6.38;2.97;;;;;;;19.58;55.83;101569.97;5142482;27;20069;-61
2023/07/14 05:54:28;;;;;;;5.05;2.55;;;;;;;19.59;55.79;101568.88;5142375;27;20036;-62
2023/07/14 05:56:56;;;;;;;4.75;2.33;;;;;;;19.59;55.64;101566.16;5140621;27;20589;-61
2023/07/14 05:59:24;;;;;;;4.03;2.20;;;;;;;19.59;55.85;101559.88;5138879;27;20043;-60
2023/07/14 06:01:52;;;;;;;3.47;2.20;;;;;;;19.59;55.94;101563.44;5143314;27;20047;-61
2023/07/14 06:04:20;;;;;;;4.18;2.50;;;;;;;19.60;55.70;101565.06;5139083;27;20606;-61
2023/07/14 06:06:48;;;;;;;4.43;2.20;;;;;;;19.61;55.74;101563.16;5144660;27;20043;-60
2023/07/14 06:09:16;;;;;;;4.65;2.40;;;;;;;19.60;55.74;101572.44;5144359;27;20104;-60
2023/07/14 06:11:45;;;;;;;3.25;2.17;;;;;;;19.60;55.67;101565.06;5136807;27;20047;-63
2023/07/14 06:14:13;;;;;;;8.63;2.72;;;;;;;19.72;56.74;101568.41;5140392;27;20061;-63
2023/07/14 06:16:41;;;;;;;7.43;3.28;;;;;;;19.67;56.40;101565.66;5145399;27;20081;-61
2023/07/14 06:19:09;;;;;;;5.88;2.65;;;;;;;19.64;56.20;101568.91;5146557;27;20051;-62
2023/07/14 06:21:37;;;;;;;4.78;2.35;;;;;;;19.64;56.33;101568.09;5145059;27;20081;-62
2023/07/14 06:24:07;;;;;;;7.57;2.25;;;;;;;19.63;56.19;101561.81;5136728;27;20146;-62
2023/07/14 06:26:35;;;;;;;5.40;2.35;;;;;;;19.65;56.27;101564.28;5146538;27;20071;-62
2023/07/14 06:29:04;;;;;;;5.78;2.17;;;;;;;19.65;56.23;101562.38;5146864;27;20047;-62
2023/07/14 06:31:32;;;;;;;6.75;2.63;;;;;;;19.66;56.50;101566.75;5146984;27;20069;-62
2023/07/14 06:34:00;;;;;;;5.55;2.25;;;;;;;19.66;56.39;101564.00;5137731;27;20103;-62
2023/07/14 06:36:28;;;;;;;4.82;2.35;;;;;;;19.66;56.33;101555.00;5145724;27;20047;-62
2023/07/14 06:38:56;;;;;;;4.63;2.22;;;;;;;19.69;56.23;101560.75;5156489;27;20050;-62
2023/07/14 06:41:23;;;;;;;5.00;2.20;;;;;;;19.69;56.43;101562.66;5141043;27;20073;-62
2023/07/14 06:43:52;;;;;;;5.15;2.00;;;;;;;19.71;56.26;101555.84;5148842;27;20042;-62
2023/07/14 06:46:22;;;;;;;8.63;3.10;;;;;;;19.67;56.19;101554.75;5150246;27;20138;-62
2023/07/14 06:48:49;;;;;;;3.22;1.90;;;;;;;19.75;56.28;101559.69;5136421;27;20050;-62
2023/07/14 06:51:17;;;;;;;7.38;2.38;;;;;;;19.75;55.98;101556.97;5145713;27;20068;-62
2023/07/14 06:53:45;;;;;;;7.57;2.75;;;;;;;19.74;56.11;101555.31;5144916;27;20050;-62
2023/07/14 06:56:13;;;;;;;5.80;2.33;;;;;;;19.76;56.21;101544.16;5145962;27;20054;-64
2023/07/14 06:58:41;;;;;;;3.83;2.28;;;;;;;19.89;55.93;101546.38;5143559;27;20047;-62
2023/07/14 07:01:10;;;;;;;5.13;2.30;;;;;;;19.96;55.61;101549.69;5145392;27;20047;-61
2023/07/14 07:03:40;;;;;;;4.97;2.60;;;;;;;19.91;55.55;101546.94;5145879;27;20071;-61
2023/07/14 07:06:08;;;;;;;5.38;1.92;;;;;;;19.88;55.73;101543.94;5144072;27;20468;-62
2023/07/14 07:08:36;;;;;;;3.90;1.80;;;;;;;19.91;55.61;101540.66;5148631;27;20081;-60
2023/07/14 07:11:04;;;;;;;8.48;2.30;;;;;;;19.86;55.74;101535.19;5142103;27;20088;-61
2023/07/14 07:13:32;;;;;;;3.42;1.90;;;;;;;19.86;55.87;101535.19;5145088;27;20051;-61
2023/07/14 07:15:59;;;;;;;3.72;2.25;;;;;;;19.84;55.94;101538.19;5144877;27;20039;-61
2023/07/14 07:18:28;;;;;;;4.78;2.30;;;;;;;19.84;55.79;101535.47;5138284;27;20069;-61
2023/07/14 07:20:57;;;;;;;5.75;2.13;;;;;;;19.89;56.38;101531.94;5144980;27;20062;-60
2023/07/14 07:23:25;;;;;;;4.57;2.42;;;;;;;20.06;55.25;101527.91;5145640;27;20055;-60
2023/07/14 07:25:56;;;;;;;3.72;2.17;;;;;;;20.12;55.22;101526.00;5140520;27;20051;-60
2023/07/14 07:28:24;;;;;;;5.75;2.35;;;;;;;19.98;55.40;101520.22;5143513;27;20047;-60
2023/07/14 07:30:52;;;;;;;4.13;2.13;;;;;;;19.93;55.52;101514.75;5132452;28;20549;-60
2023/07/14 07:33:19;;;;;;;3.95;2.08;;;;;;;19.91;55.63;101524.31;5144507;28;20456;-60
2023/07/14 07:35:47;;;;;;;2.33;1.70;;;;;;;19.90;55.85;101525.38;5138869;28;20467;-61
2023/07/14 07:38:18;;;;;;;3.70;2.17;;;;;;;19.89;55.73;101519.09;5144709;28;20572;-61
2023/07/14 07:40:47;;;;;;;4.60;2.38;;;;;;;19.88;55.56;101514.75;5145265;28;20081;-61
2023/07/14 07:43:15;;;;;;;4.45;2.20;;;;;;;19.89;55.45;101508.19;5142771;28;20043;-60
2023/07/14 07:45:48;;;;;;;5.28;2.25;;;;;;;19.89;55.56;101510.94;5135486;28;20054;-60
2023/07/14 07:48:16;;;;;;;6.10;2.17;;;;;;;19.89;55.62;101515.56;5139809;28;20046;-60
2023/07/14 07:50:44;;;;;;;2.70;1.70;;;;;;;19.89;55.51;101508.19;5145450;28;20057;-60
2023/07/14 07:53:12;;;;;;;3.88;2.00;;;;;;;19.90;55.43;101514.47;5139200;28;20548;-61
2023/07/14 07:55:41;;;;;;;3.30;2.08;;;;;;;19.89;55.61;101516.38;5145357;28;20043;-61
2023/07/14 07:58:08;;;;;;;4.57;2.38;;;;;;;19.89;55.48;101504.66;5139167;28;20065;-61
2023/07/14 08:00:36;;;;;;;4.47;2.20;;;;;;;19.90;55.53;101518.03;5144763;28;20515;-61
2023/07/14 08:03:04;;;;;;;3.55;1.98;;;;;;;19.91;55.58;101508.75;5144497;28;20050;-61
2023/07/14 08:05:36;;;;;;;3.95;2.08;;;;;;;19.91;55.30;101511.47;5133751;28;20087;-61
2023/07/14 08:08:04;;;;;;;2.30;1.55;;;;;;;19.92;55.41;101506.84;5142591;28;20051;-61
2023/07/14 08:10:31;;;;;;;6.38;2.00;;;;;;;19.93;55.59;101495.66;5143696;28;20044;-60
2023/07/14 08:13:01;;;;;;;3.92;1.67;;;;;;;19.93;55.53;101500.28;5139656;28;20059;-61
2023/07/14 08:15:28;;;;;;;3.58;1.90;;;;;;;19.94;55.61;101504.66;5144869;28;20043;-61
2023/07/14 08:17:56;;;;;;;3.63;2.30;;;;;;;19.94;55.65;101508.22;5144734;28;20055;-61
2023/07/14 08:20:24;;;;;;;4.78;2.17;;;;;;;19.95;55.52;101498.94;5144819;28;20051;-61
2023/07/14 08:22:52;;;;;;;4.63;1.90;;;;;;;19.94;55.39;101494.56;5143753;28;20110;-61
2023/07/14 08:25:21;;;;;;;5.90;2.10;;;;;;;19.97;55.34;101498.66;5144776;28;20122;-61
2023/07/14 08:27:50;;;;;;;3.83;2.20;;;;;;;19.96;55.25;101492.41;5144315;28;20043;-61
2023/07/14 08:30:20;;;;;;;4.57;2.15;;;;;;;19.96;55.21;101505.22;5144530;28;20055;-61
2023/07/14 08:32:49;;;;;;;4.05;2.17;;;;;;;19.97;55.51;101499.50;5138409;28;20069;-61
2023/07/14 08:35:18;;;;;;;3.92;1.98;;;;;;;19.99;55.48;101491.03;5144726;28;20138;-61
2023/07/14 08:37:46;;;;;;;6.07;2.70;;;;;;;20.00;55.63;101493.50;5144505;28;20073;-60
2023/07/14 08:40:16;;;;;;;6.75;2.03;;;;;;;20.04;55.58;101499.25;5137135;28;20503;-61
2023/07/14 08:42:51;;;;;;;3.28;1.77;;;;;;;20.05;55.60;101492.69;5140821;28;20101;-60
2023/07/14 08:45:37;;;;;;;4.25;2.17;;;;;;;20.07;55.42;101494.06;5138544;28;20465;-60
2023/07/14 08:48:18;;;;;;;4.85;2.63;;;;;;;20.12;55.63;101482.34;5137546;27;20055;-61
2023/07/14 08:50:51;;;;;;;4.22;2.00;;;;;;;20.15;55.29;101479.88;5143989;27;20047;-61
2023/07/14 08:53:22;;;;;;;2.90;1.80;;;;;;;20.33;55.72;101469.53;5138191;27;20071;-61
2023/07/14 08:55:51;;;;;;;3.95;2.00;;;;;;;20.32;55.76;101478.81;5148501;27;20054;-61
2023/07/14 08:58:24;;;;;;;2.60;1.80;;;;;;;20.38;56.09;101483.19;5147725;27;20123;-60
2023/07/14 09:01:03;;;;;;;5.60;2.28;;;;;;;20.34;55.23;101477.47;5139216;27;20043;-61
2023/07/14 09:03:39;;;;;;;4.70;1.85;;;;;;;20.35;55.25;101472.81;5140213;27;20436;-61
2023/07/14 09:06:25;;;;;;;3.53;1.63;;;;;;;20.41;55.34;101469.84;5143900;27;20063;-61
2023/07/14 09:08:54;;;;;;;4.22;1.80;;;;;;;20.53;55.51;101469.59;5146544;27;20047;-61
2023/07/14 09:11:34;;;;;;;3.20;1.83;;;;;;;20.51;55.48;101470.94;5138813;27;20050;-62
2023/07/14 09:14:12;;;;;;;4.55;1.90;;;;;;;20.58;55.25;101464.13;5146882;27;20044;-60
2023/07/14 09:16:53;;;;;;;6.55;3.15;;;;;;;20.51;54.88;101463.56;5148033;27;20051;-61
2023/07/14 09:19:33;;;;;;;3.33;2.00;;;;;;;20.53;55.38;101455.09;4785960;27;9999864;-61
2023/07/14 09:22:08;;;;;;;2.95;1.90;;;;;;;20.64;54.93;101454.00;5139299;27;20092;-61
2023/07/14 09:24:46;;;;;;;6.10;2.10;;;;;;;20.55;54.86;101453.75;5133347;27;20047;-61
2023/07/14 09:27:21;;;;;;;3.83;1.60;;;;;;;20.73;55.06;101455.09;5135697;27;20517;-61
2023/07/14 09:29:50;;;;;;;3.03;2.03;;;;;;;21.04;54.18;101451.19;5146941;27;20100;-61
2023/07/14 09:32:27;;;;;;;3.38;1.63;;;;;;;21.02;54.46;101447.09;5142594;27;20043;-61
2023/07/14 09:34:58;;;;;;;3.95;2.10;;;;;;;20.87;54.74;101441.66;5146189;27;20738;-61
2023/07/14 09:37:30;;;;;;;5.88;1.75;;;;;;;20.77;54.81;101435.16;5140341;27;20054;-61
2023/07/14 09:40:15;;;;;;;4.15;1.73;;;;;;;20.72;54.76;101429.69;5145754;27;20047;-62
2023/07/14 09:42:43;;;;;;;3.33;1.60;;;;;;;20.71;55.05;101430.78;5145223;27;20043;-60
2023/07/14 09:45:15;;;;;;;3.50;1.77;;;;;;;20.73;55.05;101434.06;5147343;27;20078;-62
2023/07/14 09:47:47;;;;;;;2.92;1.63;;;;;;;20.88;54.87;101424.16;5143474;27;20059;-61
2023/07/14 09:50:18;;;;;;;4.05;2.03;;;;;;;20.96;54.46;101415.41;5147482;27;20128;-62
2023/07/14 09:52:50;;;;;;;3.75;2.05;;;;;;;20.90;54.46;101414.59;5144524;27;20050;-61
2023/07/14 09:55:19;;;;;;;2.88;1.70;;;;;;;20.89;54.57;101418.44;5147558;27;20088;-61
2023/07/14 09:57:50;;;;;;;4.85;1.70;;;;;;;20.94;54.69;101412.13;5146078;27;20054;-62
2023/07/14 10:00:41;;;;;;;4.15;2.38;;;;;;;21.04;54.31;101421.13;5145058;27;20353;-62
2023/07/14 10:03:16;;;;;;;4.90;2.33;;;;;;;21.04;54.36;101414.84;5146859;27;20050;-62
2023/07/14 10:06:02;;;;;;;2.22;1.80;;;;;;;21.02;54.40;101409.66;5146513;27;20054;-62
2023/07/14 10:08:33;;;;;;;2.85;1.70;;;;;;;21.01;54.44;101405.28;5144039;27;20116;-62
2023/07/14 10:11:15;;;;;;;7.47;2.17;;;;;;;21.02;54.45;101389.69;5135959;27;20051;-62
2023/07/14 10:13:48;;;;;;;3.50;1.70;;;;;;;21.02;54.44;101385.06;5142534;27;20061;-62
2023/07/14 10:16:18;;;;;;;3.85;1.95;;;;;;;21.07;54.49;101384.22;5141656;27;20043;-62
2023/07/14 10:18:54;;;;;;;2.53;1.50;;;;;;;21.05;54.49;101370.84;5142444;27;21616;-63
2023/07/14 10:21:26;;;;;;;5.60;2.20;;;;;;;21.04;54.48;101368.38;5145492;27;20047;-63
2023/07/14 10:24:01;;;;;;;4.75;2.15;;;;;;;21.07;54.31;101367.81;5146130;27;20043;-63
2023/07/14 10:26:32;;;;;;;4.70;1.90;;;;;;;21.15;54.11;101369.16;5141178;27;20055;-61
2023/07/14 10:29:00;;;;;;;3.63;1.50;;;;;;;21.17;54.25;101356.84;5142821;27;20076;-64
2023/07/14 10:31:38;;;;;;;2.35;1.70;;;;;;;21.29;53.74;101362.84;5140694;27;20039;-64
2023/07/14 10:34:21;;;;;;;3.95;2.10;;;;;;;21.28;54.13;101357.66;5140915;27;20043;-64
2023/07/14 10:36:53;;;;;;;3.28;1.83;;;;;;;21.25;54.03;101359.03;5145156;27;20072;-63
2023/07/14 10:39:32;;;;;;;5.63;1.80;;;;;;;21.28;54.22;101352.19;5146447;27;20063;-64
2023/07/14 10:42:00;;;;;;;2.75;1.80;;;;;;;21.35;54.44;101339.84;5141489;27;20066;-63
2023/07/14 10:44:33;;;;;;;6.63;2.42;;;;;;;21.40;54.28;101345.28;5135018;27;20051;-63
2023/07/14 10:47:05;;;;;;;5.15;1.60;;;;;;;21.41;54.32;101341.44;5135818;27;20692;-63
2023/07/14 10:49:37;;;;;;;5.25;1.80;;;;;;;21.53;53.93;101329.34;5140205;27;20450;-62
2023/07/14 10:52:12;;;;;;;3.75;1.98;;;;;;;21.58;53.86;101334.78;5137377;27;20047;-63
2023/07/14 10:54:47;;;;;;;5.88;1.63;;;;;;;21.58;53.87;101321.91;5142340;27;20046;-63
2023/07/14 10:57:34;;;;;;;3.93;2.00;;;;;;;21.65;53.74;101321.59;5141384;27;20426;-63
2023/07/14 11:00:14;;;;;;;;;;;;;;;21.69;53.76;101330.88;5140044;27;20394;-64
2023/07/14 11:02:50;;;;;;;3.22;1.80;;;;;;;21.68;53.71;101327.31;5135583;27;19935;-64
2023/07/14 11:05:22;;;;;;;5.95;1.90;;;;;;;21.76;53.87;101329.44;5133466;27;20051;-65
2023/07/14 11:07:50;;;;;;;3.13;1.67;;;;;;;21.79;53.67;101319.84;5142671;27;20095;-64
2023/07/14 11:10:26;;;;;;;2.08;1.40;;;;;;;21.81;53.50;101303.97;5138026;27;20047;-65
2023/07/14 11:13:03;;;;;;;3.05;1.90;;;;;;;21.88;53.17;101303.66;5137883;27;20072;-64
2023/07/14 11:15:41;;;;;;;3.92;1.67;;;;;;;21.91;52.81;101282.00;5140515;27;20047;-65
2023/07/14 11:18:21;;;;;;;3.75;2.20;;;;;;;21.90;53.05;101279.53;5138306;27;20100;-65
2023/07/14 11:21:04;;;;;;;2.17;1.50;;;;;;;21.90;52.99;101285.84;5140612;27;20042;-65
2023/07/14 11:23:42;;;;;;;2.35;1.60;;;;;;;21.91;53.14;101282.00;5140485;27;20051;-65
2023/07/14 11:26:16;;;;;;;2.85;1.60;;;;;;;21.96;53.06;101279.22;5144217;27;20039;-65
2023/07/14 11:28:53;;;;;;;3.28;2.08;;;;;;;22.02;52.91;101289.03;5139904;27;20090;-65
2023/07/14 11:31:25;;;;;;;4.65;1.70;;;;;;;22.05;52.76;101280.25;5140972;27;20100;-65
2023/07/14 11:34:17;;;;;;;3.45;1.98;;;;;;;22.07;52.84;101269.84;5139011;27;20050;-65
2023/07/14 11:36:58;;;;;;;7.35;2.22;;;;;;;22.05;52.98;101271.22;5140428;28;20501;-65
2023/07/14 11:39:42;;;;;;;3.15;1.60;;;;;;;22.05;52.97;101265.75;5135614;27;20327;-65
2023/07/14 11:42:22;;;;;;;3.47;1.90;;;;;;;22.03;53.09;101271.50;5133262;28;20052;-65